createdAt,value
2019-01-31T00:02:00.763Z,99.90
2019-01-31T00:05:16.800Z,99.90
2019-01-31T00:08:05.892Z,99.90
2019-01-31T00:11:01.467Z,99.90
2019-01-31T00:13:44.570Z,99.90
2019-01-31T00:16:41.584Z,99.90
2019-01-31T00:19:48.244Z,99.90
2019-01-31T00:22:54.774Z,99.90
2019-01-31T00:26:02.451Z,99.90
2019-01-31T00:29:07.219Z,99.90
2019-01-31T00:32:09.861Z,99.90
2019-01-31T00:35:23.287Z,99.90
2019-01-31T00:38:24.005Z,99.90
2019-01-31T00:41:26.453Z,99.90
2019-01-31T00:44:13.302Z,99.90
2019-01-31T00:47:34.353Z,99.90
2019-01-31T00:50:47.774Z,99.90
2019-01-31T00:54:14.073Z,99.90
2019-01-31T00:56:57.069Z,99.90
2019-01-31T01:00:09.216Z,99.90
2019-01-31T01:03:29.663Z,99.90
2019-01-31T01:06:13.137Z,99.90
2019-01-31T01:09:21.045Z,99.90
2019-01-31T01:12:22.999Z,99.90
2019-01-31T01:15:37.250Z,99.90
2019-01-31T01:18:36.725Z,99.90
2019-01-31T01:21:26.617Z,99.90
2019-01-31T01:24:11.980Z,99.90
2019-01-31T01:27:01.023Z,99.90
2019-01-31T01:30:25.343Z,99.90
2019-01-31T01:33:26.430Z,99.90
2019-01-31T01:36:11.429Z,99.90
2019-01-31T01:39:19.491Z,99.90
2019-01-31T01:42:09.434Z,99.90
2019-01-31T01:44:49.063Z,99.90
2019-01-31T01:47:50.183Z,99.90
2019-01-31T01:50:40.064Z,99.90
2019-01-31T01:53:40.439Z,99.90
2019-01-31T01:56:55.771Z,99.90
2019-01-31T02:00:23.931Z,99.90
2019-01-31T02:03:45.179Z,99.90
2019-01-31T02:06:53.886Z,99.90
2019-01-31T02:10:10.718Z,99.90
2019-01-31T02:13:30.436Z,99.90
2019-01-31T02:16:39.943Z,99.90
2019-01-31T02:19:46.224Z,99.90
2019-01-31T02:22:45.393Z,99.90
2019-01-31T02:25:30.984Z,99.90
2019-01-31T02:28:36.832Z,99.90
2019-01-31T02:31:32.459Z,99.90
2019-01-31T02:34:14.405Z,99.90
2019-01-31T02:37:13.516Z,99.90
2019-01-31T02:40:33.372Z,99.90
2019-01-31T02:43:33.558Z,99.90
2019-01-31T02:46:34.862Z,99.90
2019-01-31T02:49:50.024Z,99.90
2019-01-31T02:52:36.477Z,99.90
2019-01-31T02:55:29.854Z,99.90
2019-01-31T02:58:20.815Z,99.90
2019-01-31T03:01:39.434Z,99.90
2019-01-31T03:04:35.957Z,99.90
2019-01-31T03:07:37.157Z,99.90
2019-01-31T03:10:54.643Z,99.90
2019-01-31T03:14:09.311Z,99.90
2019-01-31T03:16:53.092Z,99.90
2019-01-31T03:19:48.501Z,99.90
2019-01-31T03:22:51.519Z,99.90
2019-01-31T03:25:43.589Z,99.90
2019-01-31T03:29:04.732Z,99.90
2019-01-31T03:32:24.368Z,99.90
2019-01-31T03:35:20.295Z,99.90
2019-01-31T03:38:19.448Z,99.90
2019-01-31T03:41:23.289Z,99.90
2019-01-31T03:44:11.111Z,99.90
2019-01-31T03:47:10.520Z,99.90
2019-01-31T03:50:13.017Z,99.90
2019-01-31T03:53:21.550Z,99.90
2019-01-31T03:56:21.357Z,99.90
2019-01-31T03:59:16.733Z,99.90
2019-01-31T04:02:14.783Z,99.90
2019-01-31T04:05:18.102Z,99.90
2019-01-31T04:07:49.627Z,99.90
2019-01-31T04:10:21.223Z,99.90
2019-01-31T04:13:04.685Z,99.90
2019-01-31T04:15:36.948Z,99.90
2019-01-31T04:18:08.420Z,99.90
2019-01-31T04:20:40.039Z,99.90
2019-01-31T04:23:11.597Z,99.90
2019-01-31T04:25:43.208Z,99.90
2019-01-31T04:28:15.583Z,99.90
2019-01-31T04:30:47.133Z,99.90
2019-01-31T04:33:18.478Z,99.90
2019-01-31T04:35:50.045Z,99.90
2019-01-31T04:38:21.334Z,99.90
2019-01-31T04:40:52.826Z,99.90
2019-01-31T04:43:24.166Z,99.90
2019-01-31T04:45:55.908Z,99.90
2019-01-31T04:48:27.283Z,99.90
2019-01-31T04:50:58.615Z,99.90
2019-01-31T04:53:30.083Z,99.90
2019-01-31T04:56:01.823Z,99.90
2019-01-31T04:58:34.350Z,99.90
2019-01-31T05:01:06.306Z,99.90
2019-01-31T05:03:37.734Z,99.90
2019-01-31T05:06:09.485Z,99.90
2019-01-31T05:08:40.986Z,99.90
2019-01-31T05:11:12.589Z,99.90
2019-01-31T05:13:44.032Z,99.90
2019-01-31T05:16:15.573Z,99.90
2019-01-31T05:18:46.918Z,99.90
2019-01-31T05:21:21.037Z,99.90
2019-01-31T05:23:52.692Z,99.90
2019-01-31T05:26:24.315Z,99.90
2019-01-31T05:28:55.804Z,99.90
2019-01-31T05:31:27.326Z,99.90
2019-01-31T05:33:59.041Z,99.90
2019-01-31T05:36:30.494Z,99.90
2019-01-31T05:39:02.670Z,99.90
2019-01-31T05:41:35.462Z,99.90
2019-01-31T05:44:07.431Z,99.90
2019-01-31T05:46:38.810Z,99.90
2019-01-31T05:49:10.440Z,99.90
2019-01-31T05:51:41.851Z,99.90
2019-01-31T05:54:13.279Z,99.90
2019-01-31T05:56:44.904Z,99.90
2019-01-31T05:59:16.058Z,99.90
2019-01-31T06:01:47.731Z,99.90
2019-01-31T06:04:19.328Z,99.90
2019-01-31T06:06:50.758Z,99.90
2019-01-31T06:09:22.080Z,99.90
2019-01-31T06:11:53.705Z,99.90
2019-01-31T06:14:25.310Z,99.90
2019-01-31T06:16:57.050Z,99.90
2019-01-31T06:19:28.550Z,99.90
2019-01-31T06:21:59.998Z,99.90
2019-01-31T06:24:31.648Z,99.90
2019-01-31T06:27:03.750Z,99.90
2019-01-31T06:29:35.275Z,99.90
2019-01-31T06:32:06.836Z,99.90
2019-01-31T06:34:38.417Z,99.90
2019-01-31T06:37:09.725Z,99.90
2019-01-31T06:39:41.307Z,99.90
2019-01-31T06:42:12.786Z,99.90
2019-01-31T06:44:45.311Z,99.90
2019-01-31T06:47:16.746Z,99.90
2019-01-31T06:49:48.264Z,99.90
2019-01-31T06:52:19.647Z,99.90
2019-01-31T06:54:51.425Z,99.90
2019-01-31T06:57:22.793Z,99.90
2019-01-31T06:59:54.492Z,99.90
2019-01-31T07:02:26.039Z,99.90
2019-01-31T07:04:57.251Z,99.90
2019-01-31T07:07:29.218Z,99.90
2019-01-31T07:10:00.784Z,99.90
2019-01-31T07:12:34.199Z,99.90
2019-01-31T07:15:24.544Z,99.90
2019-01-31T07:17:57.101Z,99.90
2019-01-31T07:20:28.865Z,99.90
2019-01-31T07:23:00.888Z,99.90
2019-01-31T07:25:32.386Z,99.90
2019-01-31T07:28:18.565Z,99.90
2019-01-31T07:30:50.850Z,99.90
2019-01-31T07:33:22.464Z,99.90
2019-01-31T07:35:53.981Z,99.90
2019-01-31T07:38:25.580Z,99.90
2019-01-31T07:40:56.836Z,99.90
2019-01-31T07:43:28.629Z,99.90
2019-01-31T07:46:00.443Z,99.90
2019-01-31T07:48:32.055Z,99.90
2019-01-31T07:51:03.637Z,99.90
2019-01-31T07:53:35.750Z,99.90
2019-01-31T07:56:07.210Z,99.90
2019-01-31T07:58:38.713Z,99.90
2019-01-31T08:01:10.067Z,99.90
2019-01-31T08:03:42.439Z,99.90
2019-01-31T08:06:13.922Z,99.90
2019-01-31T08:08:45.515Z,99.90
2019-01-31T08:11:18.071Z,99.90
2019-01-31T08:13:49.674Z,99.90
2019-01-31T08:16:21.312Z,99.90
2019-01-31T08:18:53.025Z,99.90
2019-01-31T08:21:25.611Z,99.90
2019-01-31T08:23:57.370Z,99.90
2019-01-31T08:26:29.050Z,99.90
2019-01-31T08:29:00.479Z,99.90
2019-01-31T08:31:31.979Z,99.90
2019-01-31T08:34:03.481Z,99.90
2019-01-31T08:36:34.946Z,99.90
2019-01-31T08:39:08.263Z,99.90
2019-01-31T08:41:40.869Z,99.90
2019-01-31T08:44:12.591Z,99.90
2019-01-31T08:46:43.950Z,99.90
2019-01-31T08:49:15.505Z,99.90
2019-01-31T08:51:46.793Z,99.90
2019-01-31T08:54:18.265Z,99.90
2019-01-31T08:56:50.555Z,99.90
2019-01-31T08:59:22.038Z,99.90
2019-01-31T09:01:54.381Z,99.90
2019-01-31T09:04:25.635Z,99.90
2019-01-31T09:06:57.515Z,99.90
2019-01-31T09:09:28.979Z,99.90
2019-01-31T09:12:00.785Z,99.90
2019-01-31T09:14:32.267Z,99.90
2019-01-31T09:17:04.638Z,99.90
2019-01-31T09:19:36.052Z,99.90
2019-01-31T09:22:25.509Z,99.90
2019-01-31T09:25:15.518Z,99.90
2019-01-31T09:28:33.843Z,99.90
2019-01-31T09:32:01.856Z,99.90
2019-01-31T09:34:45.637Z,99.90
2019-01-31T09:37:52.703Z,99.90
2019-01-31T09:40:58.018Z,99.90
2019-01-31T09:43:42.897Z,99.90
2019-01-31T09:46:35.502Z,99.90
2019-01-31T09:49:30.613Z,99.90
2019-01-31T09:52:49.029Z,99.90
2019-01-31T09:55:57.062Z,99.90
2019-01-31T09:58:44.952Z,99.60
2019-01-31T10:02:05.502Z,97.10
2019-01-31T10:05:24.049Z,92.50
2019-01-31T10:08:33.971Z,91.50
2019-01-31T10:11:34.093Z,92.50
2019-01-31T10:14:52.095Z,92.10
2019-01-31T10:18:07.485Z,93.00
2019-01-31T10:21:09.087Z,91.50
2019-01-31T10:24:09.785Z,94.20
2019-01-31T10:27:17.107Z,92.40
2019-01-31T10:30:31.854Z,92.00
2019-01-31T10:33:52.626Z,93.00
2019-01-31T10:37:10.562Z,92.40
2019-01-31T10:40:12.770Z,92.50
2019-01-31T10:43:15.558Z,91.40
2019-01-31T10:46:35.754Z,92.10
2019-01-31T10:50:01.098Z,92.00
2019-01-31T10:52:55.138Z,91.20
2019-01-31T10:55:38.248Z,91.20
2019-01-31T10:58:45.754Z,90.60
2019-01-31T11:02:02.658Z,91.30
2019-01-31T11:05:09.848Z,90.90
2019-01-31T11:07:52.639Z,90.90
2019-01-31T11:10:54.225Z,93.40
2019-01-31T11:14:07.578Z,93.80
2019-01-31T11:17:14.658Z,92.30
2019-01-31T11:20:12.387Z,93.70
2019-01-31T11:23:23.338Z,92.40
2019-01-31T11:26:38.667Z,92.30
2019-01-31T11:29:50.384Z,93.80
2019-01-31T11:33:11.552Z,94.40
2019-01-31T11:36:19.101Z,95.20
2019-01-31T11:39:24.191Z,94.90
2019-01-31T11:42:19.663Z,95.80
2019-01-31T11:45:22.428Z,96.50
2019-01-31T11:48:12.344Z,95.60
2019-01-31T11:51:36.584Z,94.70
2019-01-31T11:54:39.731Z,93.90
2019-01-31T11:57:52.420Z,93.40
2019-01-31T12:00:25.991Z,94.60
2019-01-31T12:02:57.662Z,94.40
2019-01-31T12:05:29.364Z,93.10
2019-01-31T12:08:00.875Z,93.30
2019-01-31T12:10:32.647Z,94.50
2019-01-31T12:13:04.234Z,95.00
2019-01-31T12:15:35.730Z,94.20
2019-01-31T12:18:08.268Z,94.60
2019-01-31T12:20:39.739Z,94.10
2019-01-31T12:23:11.399Z,94.30
2019-01-31T12:25:42.805Z,94.00
2019-01-31T12:28:14.438Z,94.50
2019-01-31T12:30:47.094Z,95.80
2019-01-31T12:33:18.700Z,95.50
2019-01-31T12:35:50.283Z,96.30
2019-01-31T12:38:22.791Z,96.50
2019-01-31T12:40:54.430Z,98.00
2019-01-31T12:43:34.693Z,97.90
2019-01-31T12:45:59.129Z,97.20
2019-01-31T12:48:30.500Z,97.30
2019-01-31T12:51:03.285Z,97.60
2019-01-31T12:53:34.845Z,99.90
2019-01-31T12:56:06.630Z,99.90
2019-01-31T12:58:38.152Z,99.90
2019-01-31T13:01:09.981Z,99.90
2019-01-31T13:03:41.538Z,99.90
2019-01-31T13:06:14.001Z,99.90
2019-01-31T13:08:46.336Z,99.90
2019-01-31T13:11:17.757Z,99.90
2019-01-31T13:13:49.905Z,99.90
2019-01-31T13:16:21.401Z,99.90
2019-01-31T13:18:52.873Z,99.90
2019-01-31T13:21:25.302Z,99.90
2019-01-31T13:23:57.062Z,99.90
2019-01-31T13:26:29.499Z,99.90
2019-01-31T13:29:02.166Z,99.90
2019-01-31T13:31:34.842Z,99.90
2019-01-31T13:34:06.511Z,99.90
2019-01-31T13:36:38.651Z,99.90
2019-01-31T13:39:15.828Z,99.90
2019-01-31T13:41:47.266Z,99.90
2019-01-31T13:44:18.807Z,99.90
2019-01-31T13:46:50.411Z,99.90
2019-01-31T13:49:22.821Z,99.90
2019-01-31T13:51:55.453Z,99.90
2019-01-31T13:54:27.167Z,99.90
2019-01-31T13:56:58.842Z,99.90
2019-01-31T13:59:30.009Z,99.90
2019-01-31T14:02:01.587Z,99.90
2019-01-31T14:04:33.140Z,99.90
2019-01-31T14:07:04.767Z,99.90
2019-01-31T14:09:36.329Z,99.90
2019-01-31T14:12:07.993Z,99.90
2019-01-31T14:14:39.535Z,99.90
2019-01-31T14:17:11.237Z,99.90
2019-01-31T14:19:43.013Z,99.90
2019-01-31T14:22:14.591Z,99.90
2019-01-31T14:24:46.055Z,99.90
2019-01-31T14:27:17.709Z,99.90
2019-01-31T14:29:49.295Z,99.90
2019-01-31T14:32:21.470Z,99.90
2019-01-31T14:34:53.101Z,99.90
2019-01-31T14:37:24.619Z,99.90
2019-01-31T14:39:56.255Z,99.90
2019-01-31T14:42:27.819Z,99.90
2019-01-31T14:44:59.953Z,99.90
2019-01-31T14:47:32.372Z,99.90
2019-01-31T14:50:04.098Z,99.90
2019-01-31T14:52:35.608Z,99.90
2019-01-31T14:55:08.481Z,99.90
2019-01-31T14:57:40.404Z,99.90
2019-01-31T15:00:15.563Z,99.90
2019-01-31T15:02:47.059Z,99.90
2019-01-31T15:05:18.959Z,99.90
2019-01-31T15:07:50.535Z,99.90
2019-01-31T15:10:24.279Z,99.90
2019-01-31T15:12:55.913Z,99.90
2019-01-31T15:15:27.451Z,99.90
2019-01-31T15:17:59.935Z,99.90
2019-01-31T15:20:40.200Z,99.90
2019-01-31T15:23:11.822Z,99.90
2019-01-31T15:25:43.408Z,99.90
2019-01-31T15:28:15.183Z,99.90
2019-01-31T15:30:46.750Z,99.90
2019-01-31T15:33:18.359Z,99.90
2019-01-31T15:35:50.209Z,99.90
2019-01-31T15:38:21.900Z,99.90
2019-01-31T15:40:53.365Z,99.90
2019-01-31T15:43:24.743Z,99.90
2019-01-31T15:45:56.551Z,99.90
2019-01-31T15:48:28.237Z,99.90
2019-01-31T15:50:59.824Z,99.90
2019-01-31T15:53:31.095Z,99.90
2019-01-31T15:56:02.752Z,99.90
2019-01-31T15:58:34.480Z,99.90
2019-01-31T16:01:08.432Z,99.90
2019-01-31T16:03:40.034Z,99.90
2019-01-31T16:06:11.925Z,99.90
2019-01-31T16:08:43.753Z,99.90
2019-01-31T16:11:15.205Z,99.90
2019-01-31T16:13:46.900Z,99.90
2019-01-31T16:16:20.123Z,99.90
2019-01-31T16:18:51.722Z,99.90
2019-01-31T16:21:23.342Z,99.90
2019-01-31T16:23:54.780Z,99.90
2019-01-31T16:26:26.146Z,99.90
2019-01-31T16:28:59.072Z,99.90
2019-01-31T16:31:30.913Z,99.90
2019-01-31T16:34:02.479Z,99.90
2019-01-31T16:36:34.501Z,99.90
2019-01-31T16:39:08.905Z,99.90
2019-01-31T16:41:40.617Z,99.90
2019-01-31T16:44:23.539Z,99.90
2019-01-31T16:46:55.209Z,99.90
2019-01-31T16:49:26.638Z,99.90
2019-01-31T16:51:58.290Z,99.90
2019-01-31T16:54:29.760Z,99.90
2019-01-31T16:57:01.475Z,99.90
2019-01-31T16:59:33.433Z,99.90
2019-01-31T17:02:06.216Z,99.90
2019-01-31T17:04:38.449Z,99.90
2019-01-31T17:07:09.990Z,99.90
2019-01-31T17:09:41.624Z,99.90
2019-01-31T17:12:13.297Z,99.90
2019-01-31T17:14:44.752Z,99.90
2019-01-31T17:17:16.224Z,99.90
2019-01-31T17:19:47.779Z,99.90
2019-01-31T17:22:19.136Z,99.90
2019-01-31T17:24:50.480Z,99.90
2019-01-31T17:27:21.884Z,99.90
2019-01-31T17:29:53.131Z,99.90
2019-01-31T17:32:25.120Z,99.90
2019-01-31T17:34:56.404Z,99.90
2019-01-31T17:37:28.027Z,99.90
2019-01-31T17:39:59.628Z,99.90
2019-01-31T17:42:31.320Z,99.90
2019-01-31T17:45:02.791Z,99.90
2019-01-31T17:47:34.924Z,99.90
2019-01-31T17:50:07.560Z,99.90
2019-01-31T17:52:39.820Z,99.90
2019-01-31T17:55:12.749Z,99.90
2019-01-31T17:57:44.392Z,99.90
2019-01-31T18:00:19.669Z,99.90
2019-01-31T18:02:51.665Z,99.90
2019-01-31T18:05:23.318Z,99.90
2019-01-31T18:07:55.617Z,99.90
2019-01-31T18:10:26.906Z,99.90
2019-01-31T18:12:58.492Z,99.90
2019-01-31T18:15:41.174Z,99.90
2019-01-31T18:18:03.816Z,99.90
2019-01-31T18:20:35.306Z,99.90
2019-01-31T18:23:07.781Z,99.90
2019-01-31T18:25:39.141Z,99.90
2019-01-31T18:28:12.419Z,99.90
2019-01-31T18:30:43.732Z,99.90
2019-01-31T18:33:15.603Z,99.90
2019-01-31T18:35:47.099Z,99.90
2019-01-31T18:38:18.666Z,99.90
2019-01-31T18:40:50.097Z,99.90
2019-01-31T18:43:21.707Z,99.90
2019-01-31T18:45:53.801Z,99.90
2019-01-31T18:48:25.442Z,99.90
2019-01-31T18:50:56.828Z,99.90
2019-01-31T18:53:28.253Z,99.90
2019-01-31T18:55:59.593Z,99.90
2019-01-31T18:58:30.910Z,99.90
2019-01-31T19:01:02.361Z,99.90
2019-01-31T19:03:34.926Z,99.90
2019-01-31T19:06:06.568Z,99.90
2019-01-31T19:08:38.247Z,99.90
2019-01-31T19:11:09.757Z,99.90
2019-01-31T19:13:41.253Z,99.90
2019-01-31T19:16:12.718Z,99.90
2019-01-31T19:18:45.050Z,99.90
2019-01-31T19:21:16.607Z,99.90
2019-01-31T19:23:48.493Z,99.90
2019-01-31T19:26:20.227Z,99.90
2019-01-31T19:28:51.695Z,99.90
2019-01-31T19:31:23.189Z,99.90
2019-01-31T19:33:56.929Z,99.90
2019-01-31T19:36:30.959Z,99.90
2019-01-31T19:39:02.247Z,99.90
2019-01-31T19:41:34.931Z,99.90
2019-01-31T19:44:06.885Z,99.90
2019-01-31T19:46:38.489Z,99.90
2019-01-31T19:49:10.284Z,99.90
2019-01-31T19:51:42.862Z,99.90
2019-01-31T19:54:14.502Z,99.90
2019-01-31T19:56:47.942Z,99.90
2019-01-31T19:59:31.372Z,99.90
2019-01-31T20:02:03.857Z,99.90
2019-01-31T20:04:35.819Z,99.90
2019-01-31T20:07:07.399Z,99.90
2019-01-31T20:09:40.165Z,99.90
2019-01-31T20:12:11.621Z,99.90
2019-01-31T20:14:43.171Z,99.90
2019-01-31T20:17:14.739Z,99.90
2019-01-31T20:19:46.324Z,99.90
2019-01-31T20:22:17.978Z,99.90
2019-01-31T20:24:49.675Z,99.90
2019-01-31T20:27:21.866Z,99.90
2019-01-31T20:29:53.497Z,99.90
2019-01-31T20:32:25.073Z,99.90
2019-01-31T20:34:56.783Z,99.90
2019-01-31T20:37:29.752Z,99.90
2019-01-31T20:40:01.503Z,99.90
2019-01-31T20:42:33.007Z,99.90
2019-01-31T20:45:04.935Z,99.90
2019-01-31T20:47:36.584Z,99.90
2019-01-31T20:50:19.212Z,99.90
2019-01-31T20:52:50.611Z,99.90
2019-01-31T20:55:22.308Z,99.90
2019-01-31T20:57:54.183Z,99.90
2019-01-31T21:00:35.263Z,99.90
2019-01-31T21:03:07.873Z,99.90
2019-01-31T21:05:39.607Z,99.90
2019-01-31T21:08:12.712Z,99.90
2019-01-31T21:10:44.115Z,99.90
2019-01-31T21:13:15.888Z,99.90
2019-01-31T21:15:47.464Z,99.90
2019-01-31T21:18:19.024Z,99.90
2019-01-31T21:20:50.669Z,99.90
2019-01-31T21:23:22.269Z,99.90
2019-01-31T21:25:53.606Z,99.90
2019-01-31T21:28:25.309Z,99.90
2019-01-31T21:30:56.482Z,99.90
2019-01-31T21:33:29.041Z,99.90
2019-01-31T21:36:00.352Z,99.90
2019-01-31T21:38:32.910Z,99.90
2019-01-31T21:41:04.258Z,99.90
2019-01-31T21:43:35.938Z,99.90
2019-01-31T21:46:07.401Z,99.90
2019-01-31T21:48:39.441Z,99.90
2019-01-31T21:51:10.812Z,99.90
2019-01-31T21:53:42.418Z,99.90
2019-01-31T21:56:13.944Z,99.90
2019-01-31T21:58:45.422Z,99.90
2019-01-31T22:01:16.945Z,99.90
2019-01-31T22:03:49.700Z,99.90
2019-01-31T22:06:22.838Z,99.90
2019-01-31T22:08:54.532Z,99.90
2019-01-31T22:11:26.104Z,99.90
2019-01-31T22:13:57.518Z,99.90
2019-01-31T22:16:28.916Z,99.90
2019-01-31T22:19:00.591Z,99.90
2019-01-31T22:21:32.124Z,99.90
2019-01-31T22:24:03.687Z,99.90
2019-01-31T22:26:34.862Z,99.90
2019-01-31T22:29:08.369Z,99.90
2019-01-31T22:31:40.359Z,99.90
2019-01-31T22:34:12.032Z,99.90
2019-01-31T22:36:43.907Z,99.90
2019-01-31T22:39:16.255Z,99.90
2019-01-31T22:41:47.861Z,99.90
2019-01-31T22:44:19.641Z,99.90
2019-01-31T22:46:51.062Z,99.90
2019-01-31T22:49:23.733Z,99.90
2019-01-31T22:51:55.244Z,99.90
2019-01-31T22:54:27.430Z,99.90
2019-01-31T22:56:58.765Z,99.90
2019-01-31T22:59:30.326Z,99.90
2019-01-31T23:02:08.255Z,99.90
2019-01-31T23:04:39.828Z,99.90
2019-01-31T23:07:11.341Z,99.90
2019-01-31T23:09:43.658Z,99.90
2019-01-31T23:12:14.936Z,99.90
2019-01-31T23:14:46.104Z,99.90
2019-01-31T23:17:17.621Z,99.90
2019-01-31T23:19:49.087Z,99.90
2019-01-31T23:22:20.493Z,99.90
2019-01-31T23:24:52.223Z,99.90
2019-01-31T23:27:23.720Z,99.90
2019-01-31T23:29:56.144Z,99.90
2019-01-31T23:32:27.421Z,99.90
2019-01-31T23:34:58.847Z,99.90
2019-01-31T23:37:30.313Z,99.90
2019-01-31T23:40:01.871Z,99.90
2019-01-31T23:42:33.377Z,99.90
2019-01-31T23:45:06.120Z,99.90
2019-01-31T23:47:48.079Z,99.90
2019-01-31T23:50:11.651Z,99.90
2019-01-31T23:52:43.126Z,99.90
2019-01-31T23:55:14.695Z,99.90
2019-01-31T23:57:46.505Z,99.90
